Fort Shaw, MT (59443)

3:12 PM MDT on May 05, 2015 (GMT -0600)
Infinity Lofts | | Change Station
CLOSE
Current Station
Personal Weather Station
Location: Sun River, MT
Elevation: 3488 ft
Nearby Weather Stations

Elev 3488 ft 47.55 °N, 111.72 °W | Updated 7 minutes ago

Partly Cloudy
Partly Cloudy
76.8 °F
Feels Like 77 °F
N
7.3
Wind Variable Wind from SE

Today
High -- | Low -- °F
--% Chance of Precip.
Yesterday
High -- | Low -- °F
Precip. -- in
6:04 AM 8:44 PM
Full, 97% visible
Pressure 29.71 in
Visibility 10.0 miles
Clouds Clear
Heat Index 77 °F
Dew Point 36 °F
Humidity 23%
Rainfall 0.00 in
Snow Depth Not available.
UV 9 out of 12
Pollen 9.60 out of 12
Air Quality Not available.
Flu Activity Local Activity
METAR KGTF 052053Z VRB04KT 10SM CLR 22/01 A2971

More Conditions Fewer Conditions

Pressure 29.71 in
Visibility 10.0 miles
Clouds Clear
Heat Index 77 °F
Dew Point 36 °F
Humidity 23%
Rainfall 0.00 in
Snow Depth Not available.
UV 9 out of 12
Pollen 9.60 out of 12
Air Quality Not available.
Flu Activity Local Activity
METAR KGTF 052053Z VRB04KT 10SM CLR 22/01 A2971

More Conditions Fewer Conditions

10-Day Weather Forecast

Almanac

Astronomy

May. 05, 2015 Rise Set
Actual Time
Civil Twilight
Nautical Twilight
Astronomical Twilight
Moon
Length of Visible Light
Length of Day
Tomorrow will be .
, % of the Moon is Illuminated

Today's Extremes

State Highs State Lows

Community

WunderPhotos

Upload Photos

1,818,979 photos uploaded!

WunderBlogs® & News

Nearby

Air Quality

  Air Quality AQ Index Pollutant
Not available.

Snow Depth

Station Depth Elevation

Earthquake Activity

City Distance Mag. Time & Date
Minimum magnitude displayed is 2.5.

Coastal Water Temperatures

Place Temperature

Stations

Nearby Weather Stations

Station Location Temp. Windchill Dew Point Humidity Wind Precip. Elev Updated Type